Orbital elements of TRAILBLAZER 2
| Launched | 19 December 2002 |
| Flight ended | – |
| Launch site | Tyuratam Missile and Space Center, Kazakhstan (Also known as Baikonur Cosmodrome) |
| Owner | United States |
| NORAD ID | 27609 |
| Date fetched |
Epoch osculation |
Inc. [°] |
Ecc. | RA asc node [hr] |
Arg Peri. [°] |
Mean anom [°] |
Mean motion [rev/day] |
Abs. mag |
| Date fetched |
Epoch osculation |
Inc. [°] |
Ecc. | RA asc node [hr] |
Arg Peri. [°] |
Mean anom [°] |
Mean motion [rev/day] |
Abs. mag |
| 2026 May 08 17:57 | 2026 May 05 08:16:37 | 64.5536 | 0.00510 | 7.2641 | 250.5178 | 109.0416 | 14.81312 | 6.243 |
| 2026 May 07 17:58 | 2026 May 05 08:16:37 | 64.5536 | 0.00510 | 7.2641 | 250.5178 | 109.0416 | 14.81312 | 6.243 |
| 2026 May 06 17:57 | 2026 May 05 08:16:37 | 64.5536 | 0.00510 | 7.2641 | 250.5178 | 109.0416 | 14.81312 | 6.243 |
| 2026 May 05 17:57 | 2026 May 05 08:16:37 | 64.5536 | 0.00510 | 7.2641 | 250.5178 | 109.0416 | 14.81312 | 6.243 |
| 2026 May 04 17:57 | 2026 Apr 30 08:22:36 | 64.5533 | 0.00512 | 8.2917 | 251.2423 | 109.0416 | 14.81312 | 6.243 |
| 2026 May 03 17:57 | 2026 Apr 30 08:22:36 | 64.5533 | 0.00512 | 8.2917 | 251.2423 | 109.0416 | 14.81312 | 6.243 |
| 2026 May 02 17:57 | 2026 Apr 30 08:22:36 | 64.5533 | 0.00512 | 8.2917 | 251.2423 | 109.0416 | 14.81312 | 6.243 |
| 2026 May 01 17:56 | 2026 Apr 30 08:22:36 | 64.5533 | 0.00512 | 8.2917 | 251.2423 | 109.0416 | 14.81312 | 6.243 |
| 2026 Apr 30 17:56 | 2026 Apr 30 08:22:36 | 64.5533 | 0.00512 | 8.2917 | 251.2423 | 109.0416 | 14.81312 | 6.243 |
| 2026 Apr 29 17:57 | 2026 Apr 24 11:24:44 | 64.5535 | 0.00514 | 9.4997 | 252.0784 | 109.0416 | 14.81312 | 6.243 |
| 2026 Apr 28 17:56 | 2026 Apr 24 11:24:44 | 64.5535 | 0.00514 | 9.4997 | 252.0784 | 109.0416 | 14.81312 | 6.243 |
| 2026 Apr 27 17:58 | 2026 Apr 24 11:24:44 | 64.5535 | 0.00514 | 9.4997 | 252.0784 | 109.0416 | 14.81312 | 6.243 |
| 2026 Apr 26 17:58 | 2026 Apr 24 11:24:44 | 64.5535 | 0.00514 | 9.4997 | 252.0784 | 109.0416 | 14.81312 | 6.243 |
| 2026 Apr 25 17:58 | 2026 Apr 24 11:24:44 | 64.5535 | 0.00514 | 9.4997 | 252.0784 | 109.0416 | 14.81312 | 6.243 |
| 2026 Apr 24 17:59 | 2026 Apr 24 11:24:44 | 64.5535 | 0.00514 | 9.4997 | 252.0784 | 109.0416 | 14.81312 | 6.243 |
| 2026 Apr 23 17:57 | 2026 Apr 19 11:30:40 | 64.5543 | 0.00516 | 10.5272 | 252.7797 | 109.0416 | 14.81312 | 6.243 |
| 2026 Apr 22 17:57 | 2026 Apr 19 11:30:40 | 64.5543 | 0.00516 | 10.5272 | 252.7797 | 109.0416 | 14.81312 | 6.243 |
| 2026 Apr 21 17:57 | 2026 Apr 19 11:30:40 | 64.5543 | 0.00516 | 10.5272 | 252.7797 | 109.0416 | 14.81312 | 6.243 |
| 2026 Apr 20 17:57 | 2026 Apr 19 11:30:40 | 64.5543 | 0.00516 | 10.5272 | 252.7797 | 109.0416 | 14.81312 | 6.243 |
| 2026 Apr 19 17:58 | 2026 Apr 19 11:30:40 | 64.5543 | 0.00516 | 10.5272 | 252.7797 | 109.0416 | 14.81312 | 6.243 |
| 2026 Apr 18 17:56 | 2026 Apr 13 04:49:27 | 64.5550 | 0.00519 | 11.8184 | 253.6659 | 109.0416 | 14.81312 | 6.243 |
| 2026 Apr 16 17:57 | 2026 Apr 13 04:49:27 | 64.5550 | 0.00519 | 11.8184 | 253.6659 | 109.0416 | 14.81312 | 6.243 |
| 2026 Apr 14 17:57 | 2026 Apr 13 04:49:27 | 64.5550 | 0.00519 | 11.8184 | 253.6659 | 109.0416 | 14.81312 | 6.243 |
| 2026 Apr 13 17:57 | 2026 Apr 13 04:49:27 | 64.5550 | 0.00519 | 11.8184 | 253.6659 | 109.0416 | 14.81312 | 6.243 |
| 2026 Apr 12 17:57 | 2026 Apr 08 14:38:40 | 64.5555 | 0.00520 | 12.7625 | 254.3040 | 109.0416 | 14.81312 | 6.243 |
| 2026 Apr 11 17:57 | 2026 Apr 08 14:38:40 | 64.5555 | 0.00520 | 12.7625 | 254.3040 | 109.0416 | 14.81312 | 6.243 |